Hdms Esbern Snare — OUFB — position and weather

sailwx.info

Track history (hours):
 
Tides and Currents Weather Stations Pressure Air Temp Water Temp Dewpoint Dewpoint Depression Visibility Wind Speed Wind Dir Waves Ship Positions

Hdms Esbern Snare

Last reported at 2014-Jun-11 08:07 UTC. Time now 2014-Oct-31 22:57 UTC.
Position N 34°27' E 033°22'.
Warning: this ship's position is months out of date.

Length 137 m.

Type: Military. MMSI: 36699999.

Date/timePositionNaut miles runAvg speedWind from/ knotsBaromVisibWave heightAir tempDewpointWater temp
2014-Jun-11 08:07N 34°27' E 033°22'4 7.1
2014-Jun-11 07:33N 34°30' E 033°19'5 4.6
2014-Jun-11 06:33N 34°28' E 033°24'23 3.3
2014-Jun-10 23:25N 34°07' E 033°38'4 1.2
2014-Jun-10 20:21N 34°09' E 033°42'4 4.7
2014-Jun-10 19:33N 34°06' E 033°39'6 5.5
2014-Jun-10 18:27N 34°00' E 033°41'6 2.9
2014-Jun-10 16:28N 34°06' E 033°44'1212.8
2014-Jun-10 15:33N 34°06' E 033°58'1111.1
2014-Jun-10 14:33N 34°11' E 034°10'10 9.6
2014-Jun-10 13:34N 34°20' E 034°13'9 8.4
2014-Jun-10 12:31N 34°26' E 034°21'30 0.7
2014-Jun-08 20:27N 34°19' E 033°46'11 8.2
2014-Jun-08 19:07N 34°18' E 033°33'10 3.9
2014-Jun-08 16:30N 34°24' E 033°23'0 0.4
2014-Jun-08 15:27N 34°24' E 033°23'2 2.7
2014-Jun-08 14:33N 34°22' E 033°21'1 0.6
2014-Jun-08 13:33N 34°23' E 033°21'1 1.0
2014-Jun-08 12:30N 34°23' E 033°20'0 0.3
2014-Jun-08 11:16N 34°23' E 033°19'1 1.0
2014-Jun-08 10:29N 34°24' E 033°19'0 0.2
2014-Jun-08 09:22N 34°24' E 033°19'1 0.4
2014-Jun-08 08:13N 34°24' E 033°19'7 9.3
2014-Jun-08 07:28N 34°28' E 033°25'  
2014-Jun-05 06:13N 34°19' E 033°24'911.3
2014-Jun-05 05:24N 34°16' E 033°14'1113.0
2014-Jun-05 04:32N 34°13' E 033°00'1110.5
2014-Jun-05 03:32N 34°13' E 032°47'41 9.8
2014-Jun-04 23:23N 34°26' E 032°01'67 3.4
2014-Jun-04 03:33N 34°49' E 030°45'32 5.3
2014-Jun-03 21:33N 34°23' E 030°23'6 6.0
2014-Jun-03 20:32N 34°18' E 030°19'5 5.1
2014-Jun-03 19:33N 34°22' E 030°14'6 4.4
2014-Jun-03 18:12N 34°27' E 030°17'5 5.0
2014-Jun-03 17:09N 34°32' E 030°18'8 5.0
2014-Jun-03 15:33N 34°40' E 030°16'3 1.2
2014-Jun-03 13:30N 34°38' E 030°18'2 2.6
2014-Jun-03 12:33N 34°36' E 030°17'  
Track history (hours):
 
Tides and Currents Weather Stations Pressure Air Temp Water Temp Dewpoint Dewpoint Depression Visibility Wind Speed Wind Dir Waves Ship Positions

Hdms Esbern Snare

Last reported at 2014-Jun-11 08:07 UTC. Time now 2014-Oct-31 22:57 UTC.
Position N 34°27' E 033°22'.
Warning: this ship's position is months out of date.

Length 137 m.

Type: Military. MMSI: 36699999.

Date/timePositionNaut miles runAvg speedWind from/ knotsBaromVisibWave heightAir tempDewpointWater temp
2014-Jun-11 08:07N 34°27' E 033°22'4 7.1
2014-Jun-11 07:33N 34°30' E 033°19'5 4.6
2014-Jun-11 06:33N 34°28' E 033°24'23 3.3
2014-Jun-10 23:25N 34°07' E 033°38'4 1.2
2014-Jun-10 20:21N 34°09' E 033°42'4 4.7
2014-Jun-10 19:33N 34°06' E 033°39'6 5.5
2014-Jun-10 18:27N 34°00' E 033°41'6 2.9
2014-Jun-10 16:28N 34°06' E 033°44'1212.8
2014-Jun-10 15:33N 34°06' E 033°58'1111.1
2014-Jun-10 14:33N 34°11' E 034°10'10 9.6
2014-Jun-10 13:34N 34°20' E 034°13'9 8.4
2014-Jun-10 12:31N 34°26' E 034°21'30 0.7
2014-Jun-08 20:27N 34°19' E 033°46'11 8.2
2014-Jun-08 19:07N 34°18' E 033°33'10 3.9
2014-Jun-08 16:30N 34°24' E 033°23'0 0.4
2014-Jun-08 15:27N 34°24' E 033°23'2 2.7
2014-Jun-08 14:33N 34°22' E 033°21'1 0.6
2014-Jun-08 13:33N 34°23' E 033°21'1 1.0
2014-Jun-08 12:30N 34°23' E 033°20'0 0.3
2014-Jun-08 11:16N 34°23' E 033°19'1 1.0
2014-Jun-08 10:29N 34°24' E 033°19'0 0.2
2014-Jun-08 09:22N 34°24' E 033°19'1 0.4
2014-Jun-08 08:13N 34°24' E 033°19'7 9.3
2014-Jun-08 07:28N 34°28' E 033°25'  
2014-Jun-05 06:13N 34°19' E 033°24'911.3
2014-Jun-05 05:24N 34°16' E 033°14'1113.0
2014-Jun-05 04:32N 34°13' E 033°00'1110.5
2014-Jun-05 03:32N 34°13' E 032°47'41 9.8
2014-Jun-04 23:23N 34°26' E 032°01'67 3.4
2014-Jun-04 03:33N 34°49' E 030°45'32 5.3
2014-Jun-03 21:33N 34°23' E 030°23'6 6.0
2014-Jun-03 20:32N 34°18' E 030°19'5 5.1
2014-Jun-03 19:33N 34°22' E 030°14'6 4.4
2014-Jun-03 18:12N 34°27' E 030°17'5 5.0
2014-Jun-03 17:09N 34°32' E 030°18'8 5.0
2014-Jun-03 15:33N 34°40' E 030°16'3 1.2
2014-Jun-03 13:30N 34°38' E 030°18'2 2.6
2014-Jun-03 12:33N 34°36' E 030°17'  

Dump ship's entire track history